Time;durP1;ratioP1;P1;durP2;ratioP2;P2;SDS_P1;SDS_P2;PMS_P1;PMS_P2;Temp;Humidity;BMP_temperature;BMP_pressure;BME280_temperature;BME280_humidity;BME280_pressure;Samples;Min_cycle;Max_cycle;Signal;HPM_P1;HPM_P2
2022/10/07 00:01:57;;;;;;;;;;;19.50;99.90;;;;;;4934766;29;20342;-71
2022/10/07 00:04:23;;;;;;;;;;;19.60;99.90;;;;;;4934939;29;19954;-69
2022/10/07 00:06:50;;;;;;;;;;;19.70;99.90;;;;;;4935083;29;20005;-67
2022/10/07 00:09:17;;;;;;;;;;;19.80;99.90;;;;;;4934705;29;20002;-68
2022/10/07 00:11:43;;;;;;;;;;;19.70;99.90;;;;;;4934776;29;19930;-68
2022/10/07 00:14:10;;;;;;;;;;;19.70;99.90;;;;;;4934993;29;20005;-69
2022/10/07 00:16:38;;;;;;;;;;;19.60;99.90;;;;;;4934746;29;19969;-67
2022/10/07 00:19:06;;;;;;;;;;;19.70;99.90;;;;;;4934406;29;19999;-67
2022/10/07 00:21:33;;;;;;;;;;;19.80;99.90;;;;;;4934788;29;19911;-72
2022/10/07 00:24:00;;;;;;;;;;;19.80;99.90;;;;;;4934828;29;20354;-69
2022/10/07 00:26:28;;;;;;;;;;;19.80;99.90;;;;;;4934707;29;19966;-68
2022/10/07 00:28:55;;;;;;;;;;;19.70;99.90;;;;;;4934358;29;19966;-69
2022/10/07 00:31:26;;;;;;;;;;;19.70;99.90;;;;;;4934324;29;20158;-69
2022/10/07 00:33:54;;;;;;;;;;;19.70;99.90;;;;;;4934800;29;19918;-70
2022/10/07 00:36:22;;;;;;;;;;;19.70;99.90;;;;;;4934713;29;19911;-68
2022/10/07 00:38:54;;;;;;;;;;;19.70;99.90;;;;;;4934415;29;19911;-67
2022/10/07 00:41:23;;;;;;;;;;;19.80;99.90;;;;;;4934624;29;19922;-68
2022/10/07 00:43:50;;;;;;;;;;;19.80;99.90;;;;;;4936601;29;19918;-68
2022/10/07 00:46:30;;;;;;;;;;;19.90;99.90;;;;;;4935073;29;19915;-68
2022/10/07 00:49:01;;;;;;;;;;;19.90;99.90;;;;;;4934436;29;19965;-68
2022/10/07 00:51:29;;;;;;;;;;;20.00;99.90;;;;;;4934634;29;19926;-68
2022/10/07 00:53:55;;;;;;;;;;;20.10;99.90;;;;;;4934629;29;19910;-68
2022/10/07 00:56:25;;;;;;;;;;;20.10;99.90;;;;;;4934677;29;19915;-70
2022/10/07 00:58:52;;;;;;;;;;;20.10;99.90;;;;;;4936134;29;19914;-68
2022/10/07 01:01:19;;;;;;;;;;;20.10;99.90;;;;;;4937882;29;20330;-68
2022/10/07 01:03:49;;;;;;;;;;;20.10;99.90;;;;;;4938200;29;19973;-68
2022/10/07 01:06:16;;;;;;;;;;;20.10;99.90;;;;;;4937985;29;19915;-69
2022/10/07 01:08:44;;;;;;;;;;;20.20;99.90;;;;;;4937668;29;19930;-68
2022/10/07 01:11:37;;;;;;;;;;;20.20;99.90;;;;;;4937664;29;19990;-68
2022/10/07 01:14:05;;;;;;;;;;;20.10;99.90;;;;;;4936069;29;19966;-69
2022/10/07 01:16:38;;;;;;;;;;;20.10;99.90;;;;;;4937927;29;19911;-68
2022/10/07 01:19:08;;;;;;;;;;;20.10;99.90;;;;;;4937401;29;20038;-69
2022/10/07 01:21:54;;;;;;;;;;;20.00;99.90;;;;;;4937773;29;19910;-69
2022/10/07 01:24:39;;;;;;;;;;;20.00;99.90;;;;;;4937806;29;19911;-68
2022/10/07 01:27:13;;;;;;;;;;;19.90;99.90;;;;;;4937522;29;19918;-68
2022/10/07 01:29:46;;;;;;;;;;;19.90;99.90;;;;;;4937593;29;19911;-68
2022/10/07 01:32:16;;;;;;;;;;;19.90;99.90;;;;;;4937633;29;19926;-68
2022/10/07 01:34:43;;;;;;;;;;;19.90;99.90;;;;;;4937536;29;19914;-68
2022/10/07 01:37:12;;;;;;;;;;;19.90;99.90;;;;;;4937296;29;19911;-68
2022/10/07 01:39:58;;;;;;;;;;;19.90;99.90;;;;;;4937153;29;21052;-68
2022/10/07 01:42:26;;;;;;;;;;;19.80;99.90;;;;;;4937216;29;19911;-68
2022/10/07 01:44:53;;;;;;;;;;;19.80;99.90;;;;;;4937456;29;19911;-68
2022/10/07 01:47:20;;;;;;;;;;;19.70;99.90;;;;;;4936992;29;19915;-67
2022/10/07 01:49:47;;;;;;;;;;;19.70;99.90;;;;;;4936752;29;19982;-67
2022/10/07 01:52:22;;;;;;;;;;;19.50;99.90;;;;;;4936933;29;19942;-67
2022/10/07 01:55:18;;;;;;;;;;;19.40;99.90;;;;;;4937086;29;19911;-67
2022/10/07 01:58:05;;;;;;;;;;;19.40;99.90;;;;;;4932504;29;19912;-66
2022/10/07 02:00:34;;;;;;;;;;;19.30;99.90;;;;;;4936643;29;20005;-67
2022/10/07 02:03:07;;;;;;;;;;;19.20;99.90;;;;;;4936806;29;19922;-69
2022/10/07 02:05:45;;;;;;;;;;;19.20;99.90;;;;;;4935685;29;19922;-72
2022/10/07 02:08:31;;;;;;;;;;;19.10;99.90;;;;;;4936685;29;20015;-68
2022/10/07 02:11:00;;;;;;;;;;;19.10;99.90;;;;;;4935902;29;19918;-68
2022/10/07 02:13:27;;;;;;;;;;;19.10;99.90;;;;;;4936831;29;19915;-69
2022/10/07 02:15:59;;;;;;;;;;;19.10;99.90;;;;;;4936731;29;20366;-68
2022/10/07 02:18:26;;;;;;;;;;;19.10;99.90;;;;;;4936622;29;19911;-68
2022/10/07 02:20:54;;;;;;;;;;;19.10;99.90;;;;;;4936760;29;19915;-69
2022/10/07 02:23:22;;;;;;;;;;;19.10;99.90;;;;;;4936306;29;19922;-69
2022/10/07 02:25:49;;;;;;;;;;;19.00;99.90;;;;;;4936742;29;19921;-68
2022/10/07 02:28:19;;;;;;;;;;;19.00;99.90;;;;;;4936263;29;19919;-73
2022/10/07 02:30:47;;;;;;;;;;;19.00;99.90;;;;;;4936444;29;20259;-69
2022/10/07 02:33:14;;;;;;;;;;;18.90;99.90;;;;;;4936281;29;19915;-68
2022/10/07 02:35:44;;;;;;;;;;;18.90;99.90;;;;;;4936336;29;19918;-67
2022/10/07 02:38:12;;;;;;;;;;;18.90;99.90;;;;;;4935987;29;19950;-68
2022/10/07 02:40:45;;;;;;;;;;;18.80;99.90;;;;;;4936604;29;19918;-67
2022/10/07 02:43:21;;;;;;;;;;;18.70;99.90;;;;;;4936186;29;19954;-75
2022/10/07 02:45:50;;;;;;;;;;;18.70;99.90;;;;;;4936140;29;19910;-74
2022/10/07 02:48:46;;;;;;;;;;;18.80;99.90;;;;;;4935682;29;19921;-70
2022/10/07 02:51:17;;;;;;;;;;;18.80;99.90;;;;;;4927312;29;20405;-72
2022/10/07 02:53:45;;;;;;;;;;;18.80;99.90;;;;;;4936316;29;20479;-73
2022/10/07 02:56:12;;;;;;;;;;;18.80;99.90;;;;;;4936201;29;20006;-70
2022/10/07 02:58:44;;;;;;;;;;;18.80;99.90;;;;;;4935723;29;20457;-76
2022/10/07 03:01:16;;;;;;;;;;;18.80;99.90;;;;;;4935684;29;19923;-74
2022/10/07 03:03:44;;;;;;;;;;;18.80;99.90;;;;;;4936259;29;19922;-75
2022/10/07 03:06:14;;;;;;;;;;;18.80;99.90;;;;;;4936217;29;19915;-71
2022/10/07 03:08:41;;;;;;;;;;;18.70;99.90;;;;;;4935704;29;19946;-74
2022/10/07 03:11:08;;;;;;;;;;;18.70;99.90;;;;;;4935569;29;19922;-70
2022/10/07 03:13:34;;;;;;;;;;;18.70;99.90;;;;;;4936015;29;19918;-73
2022/10/07 03:16:04;;;;;;;;;;;18.70;99.90;;;;;;4935773;29;19915;-73
2022/10/07 03:18:31;;;;;;;;;;;18.70;99.90;;;;;;4935610;29;19920;-72
2022/10/07 03:21:01;;;;;;;;;;;18.70;99.90;;;;;;4935733;29;20010;-72
2022/10/07 03:23:29;;;;;;;;;;;18.60;99.90;;;;;;4935964;29;19958;-74
2022/10/07 03:25:57;;;;;;;;;;;18.70;99.90;;;;;;4937406;29;20367;-73
2022/10/07 03:28:24;;;;;;;;;;;18.60;99.90;;;;;;4937098;29;19926;-74
2022/10/07 03:30:51;;;;;;;;;;;18.60;99.90;;;;;;4937042;29;19923;-72
2022/10/07 03:33:19;;;;;;;;;;;18.60;99.90;;;;;;4937123;29;19911;-75
2022/10/07 03:35:45;;;;;;;;;;;18.50;99.90;;;;;;4938122;29;19970;-71
2022/10/07 03:38:12;;;;;;;;;;;18.50;99.90;;;;;;4937888;29;19915;-74
2022/10/07 03:40:39;;;;;;;;;;;18.50;99.90;;;;;;4936291;29;19911;-72
2022/10/07 03:43:08;;;;;;;;;;;18.50;99.90;;;;;;4935124;29;19922;-70
2022/10/07 03:45:42;;;;;;;;;;;18.40;99.90;;;;;;4935169;29;19918;-75
2022/10/07 03:48:08;;;;;;;;;;;18.40;99.90;;;;;;4934933;29;19911;-73
2022/10/07 03:50:36;;;;;;;;;;;18.40;99.90;;;;;;4935174;29;20009;-75
2022/10/07 03:53:03;;;;;;;;;;;18.40;99.90;;;;;;4935003;29;20035;-69
2022/10/07 03:55:30;;;;;;;;;;;18.30;99.90;;;;;;4935196;29;20326;-74
2022/10/07 03:57:57;;;;;;;;;;;18.30;99.90;;;;;;4935107;29;19911;-71
2022/10/07 04:00:25;;;;;;;;;;;18.30;99.90;;;;;;4934980;29;19915;-71
2022/10/07 04:02:52;;;;;;;;;;;18.30;99.90;;;;;;4934845;29;19954;-70
2022/10/07 04:05:19;;;;;;;;;;;18.20;99.90;;;;;;4934801;29;19911;-73
2022/10/07 04:07:51;;;;;;;;;;;18.20;99.90;;;;;;4934305;29;20199;-72
2022/10/07 04:10:18;;;;;;;;;;;18.20;99.90;;;;;;4949087;29;19911;-71
2022/10/07 04:12:46;;;;;;;;;;;18.10;99.90;;;;;;4935297;29;19918;-69
2022/10/07 04:15:13;;;;;;;;;;;18.10;99.90;;;;;;4934672;29;19914;-70
2022/10/07 04:17:41;;;;;;;;;;;18.00;99.90;;;;;;4934850;29;19927;-71
2022/10/07 04:20:08;;;;;;;;;;;18.00;99.90;;;;;;4934672;29;19997;-70
2022/10/07 04:22:35;;;;;;;;;;;17.90;99.90;;;;;;4934850;29;19954;-69
2022/10/07 04:27:52;;;;;;;;;;;17.90;99.90;;;;;;4935298;29;19918;-72
2022/10/07 04:30:20;;;;;;;;;;;17.90;99.90;;;;;;4934273;29;19911;-71
2022/10/07 04:32:48;;;;;;;;;;;17.80;99.90;;;;;;4934976;29;20371;-70
2022/10/07 04:35:14;;;;;;;;;;;17.90;99.90;;;;;;4938544;29;20331;-69
2022/10/07 04:37:42;;;;;;;;;;;17.90;99.90;;;;;;4938584;29;20290;-71
2022/10/07 04:40:09;;;;;;;;;;;17.90;99.90;;;;;;4938403;29;19915;-72
2022/10/07 04:45:20;;;;;;;;;;;17.70;99.90;;;;;;4939376;29;19925;-70
2022/10/07 04:47:47;;;;;;;;;;;17.60;99.90;;;;;;4938698;29;19915;-75
2022/10/07 04:50:14;;;;;;;;;;;17.60;99.90;;;;;;4937989;29;19911;-71
2022/10/07 04:52:44;;;;;;;;;;;17.60;99.90;;;;;;4938195;29;20297;-74
2022/10/07 04:55:11;;;;;;;;;;;17.50;99.90;;;;;;4938279;29;19918;-71
2022/10/07 04:57:38;;;;;;;;;;;17.50;99.90;;;;;;4938212;29;19926;-70
2022/10/07 05:00:05;;;;;;;;;;;17.50;99.90;;;;;;4937789;29;19911;-74
2022/10/07 05:02:32;;;;;;;;;;;17.50;99.90;;;;;;4938064;29;20006;-70
2022/10/07 05:04:59;;;;;;;;;;;17.40;99.90;;;;;;4938144;29;20029;-71
2022/10/07 05:07:25;;;;;;;;;;;17.40;99.90;;;;;;4937896;29;19921;-70
2022/10/07 05:09:52;;;;;;;;;;;17.40;99.90;;;;;;4937688;29;19938;-71
2022/10/07 05:12:19;;;;;;;;;;;17.40;99.90;;;;;;4938010;29;19973;-72
2022/10/07 05:14:46;;;;;;;;;;;17.40;99.90;;;;;;4937899;29;19922;-74
2022/10/07 05:17:13;;;;;;;;;;;17.40;99.90;;;;;;4937773;29;19914;-73
2022/10/07 05:19:39;;;;;;;;;;;17.40;99.90;;;;;;4937597;29;19914;-69
2022/10/07 05:22:06;;;;;;;;;;;17.30;99.90;;;;;;4937795;29;19918;-71
2022/10/07 05:24:33;;;;;;;;;;;17.30;99.90;;;;;;4936454;29;19928;-70
2022/10/07 05:26:59;;;;;;;;;;;17.40;99.90;;;;;;4937861;29;19918;-70
2022/10/07 05:29:26;;;;;;;;;;;17.40;99.90;;;;;;4937110;29;19954;-72
2022/10/07 05:31:53;;;;;;;;;;;17.30;99.90;;;;;;4937580;29;20391;-70
2022/10/07 05:34:19;;;;;;;;;;;17.30;99.90;;;;;;4937713;29;20444;-70
2022/10/07 05:36:46;;;;;;;;;;;17.40;99.90;;;;;;4937627;29;20359;-72
2022/10/07 05:39:13;;;;;;;;;;;17.30;99.90;;;;;;4937009;29;19915;-69
2022/10/07 05:41:40;;;;;;;;;;;17.30;99.90;;;;;;4937543;29;19915;-70
2022/10/07 05:44:07;;;;;;;;;;;17.30;99.90;;;;;;4936922;29;19997;-73
2022/10/07 05:46:33;;;;;;;;;;;17.30;99.90;;;;;;4936538;29;19915;-71
2022/10/07 05:49:00;;;;;;;;;;;17.30;99.90;;;;;;4937148;29;19974;-69
2022/10/07 05:51:27;;;;;;;;;;;17.30;99.90;;;;;;4935589;29;19923;-70
2022/10/07 05:53:54;;;;;;;;;;;17.20;99.90;;;;;;4935389;29;20001;-69
2022/10/07 05:56:21;;;;;;;;;;;17.30;99.90;;;;;;4935260;29;19970;-72
2022/10/07 05:58:49;;;;;;;;;;;17.20;99.90;;;;;;4934858;29;20282;-69
2022/10/07 06:01:17;;;;;;;;;;;17.20;99.90;;;;;;4935106;29;19919;-70
2022/10/07 06:03:47;;;;;;;;;;;17.10;99.90;;;;;;4935005;29;19991;-70
2022/10/07 06:06:14;;;;;;;;;;;17.10;99.90;;;;;;4935129;29;20441;-69
2022/10/07 06:08:41;;;;;;;;;;;17.10;99.90;;;;;;4934977;29;19915;-69
2022/10/07 06:13:54;;;;;;;;;;;17.10;99.90;;;;;;4935350;29;19922;-69
2022/10/07 06:16:22;;;;;;;;;;;17.20;99.90;;;;;;4935086;29;19915;-70
2022/10/07 06:18:51;;;;;;;;;;;17.20;99.90;;;;;;4934376;29;19937;-68
2022/10/07 06:21:26;;;;;;;;;;;17.20;99.90;;;;;;4934744;29;19969;-68
2022/10/07 06:23:54;;;;;;;;;;;17.20;99.90;;;;;;4934546;29;19922;-70
2022/10/07 06:26:21;;;;;;;;;;;17.10;99.90;;;;;;4934628;29;20359;-70
2022/10/07 06:28:48;;;;;;;;;;;17.10;99.90;;;;;;4934321;29;19915;-69
2022/10/07 06:31:16;;;;;;;;;;;17.10;99.90;;;;;;4934253;29;19979;-70
2022/10/07 06:33:43;;;;;;;;;;;17.20;99.90;;;;;;4934689;29;19963;-71
2022/10/07 06:36:11;;;;;;;;;;;17.10;99.90;;;;;;4934808;29;19918;-71
2022/10/07 06:38:42;;;;;;;;;;;17.10;99.90;;;;;;4934193;29;19997;-70
2022/10/07 06:41:09;;;;;;;;;;;17.10;99.90;;;;;;4934701;29;19915;-70
2022/10/07 06:43:36;;;;;;;;;;;17.10;99.90;;;;;;4934061;29;19942;-70
2022/10/07 06:46:03;;;;;;;;;;;17.10;99.90;;;;;;4934536;29;19915;-69
2022/10/07 06:48:31;;;;;;;;;;;17.10;99.90;;;;;;4934196;29;20326;-71
2022/10/07 06:50:58;;;;;;;;;;;17.10;99.90;;;;;;4934508;29;19919;-70
2022/10/07 06:53:26;;;;;;;;;;;17.00;99.90;;;;;;4934250;29;19911;-69
2022/10/07 06:55:59;;;;;;;;;;;17.00;99.90;;;;;;4933881;29;20450;-70
2022/10/07 06:58:26;;;;;;;;;;;17.00;99.90;;;;;;4947658;29;19911;-71
2022/10/07 07:00:53;;;;;;;;;;;16.90;99.90;;;;;;4933860;29;19946;-73
2022/10/07 07:03:20;;;;;;;;;;;16.90;99.90;;;;;;4933950;29;19926;-70
2022/10/07 07:05:47;;;;;;;;;;;16.80;99.90;;;;;;4934171;29;19914;-68
2022/10/07 07:08:17;;;;;;;;;;;16.80;99.90;;;;;;4933679;29;20327;-70
2022/10/07 07:10:44;;;;;;;;;;;16.80;99.90;;;;;;4933336;29;20341;-68
2022/10/07 07:13:11;;;;;;;;;;;16.70;99.90;;;;;;4934002;29;19962;-70
2022/10/07 07:15:39;;;;;;;;;;;16.70;99.90;;;;;;4933864;29;19914;-71
2022/10/07 07:18:06;;;;;;;;;;;16.70;99.90;;;;;;4933493;29;19932;-69
2022/10/07 07:20:36;;;;;;;;;;;16.70;99.90;;;;;;4932517;29;19910;-69
2022/10/07 07:23:03;;;;;;;;;;;16.70;99.90;;;;;;4933195;29;20334;-70
2022/10/07 07:25:38;;;;;;;;;;;16.70;99.90;;;;;;4933737;29;19919;-69
2022/10/07 07:28:06;;;;;;;;;;;16.70;99.90;;;;;;4933407;29;19921;-70
2022/10/07 07:30:34;;;;;;;;;;;16.70;99.90;;;;;;4933592;29;20302;-71
2022/10/07 07:33:01;;;;;;;;;;;16.70;99.90;;;;;;4933774;29;19918;-69
2022/10/07 07:35:31;;;;;;;;;;;16.70;99.90;;;;;;4933197;29;20005;-68
2022/10/07 07:37:59;;;;;;;;;;;16.70;99.90;;;;;;4933661;29;20504;-69
2022/10/07 07:40:26;;;;;;;;;;;16.70;99.90;;;;;;4933721;29;20096;-68
2022/10/07 07:42:55;;;;;;;;;;;16.70;99.90;;;;;;4933525;29;20031;-70
2022/10/07 07:45:23;;;;;;;;;;;16.70;99.90;;;;;;4932908;29;19919;-69
2022/10/07 07:47:50;;;;;;;;;;;16.70;99.90;;;;;;4933269;29;19915;-69
2022/10/07 07:50:19;;;;;;;;;;;16.70;99.90;;;;;;4933647;29;19915;-68
2022/10/07 07:52:46;;;;;;;;;;;16.60;99.90;;;;;;4933716;29;19919;-68
2022/10/07 07:55:13;;;;;;;;;;;16.60;99.90;;;;;;4933428;29;20026;-68
2022/10/07 07:57:41;;;;;;;;;;;16.60;99.90;;;;;;4933505;29;19915;-68
2022/10/07 08:00:09;;;;;;;;;;;16.60;99.90;;;;;;4934060;29;19914;-67
2022/10/07 08:02:36;;;;;;;;;;;16.60;99.90;;;;;;4933264;29;20401;-69
2022/10/07 08:05:03;;;;;;;;;;;16.60;99.90;;;;;;4933814;29;19966;-68
2022/10/07 08:07:31;;;;;;;;;;;16.60;99.90;;;;;;4931894;29;19911;-68
2022/10/07 08:09:58;;;;;;;;;;;16.60;99.90;;;;;;4938632;29;19934;-68
2022/10/07 08:12:25;;;;;;;;;;;16.60;99.90;;;;;;4936771;29;19927;-70
2022/10/07 08:14:52;;;;;;;;;;;16.60;99.90;;;;;;4936150;29;19918;-68
2022/10/07 08:17:18;;;;;;;;;;;16.60;99.90;;;;;;4935246;29;19921;-68
2022/10/07 08:19:45;;;;;;;;;;;16.60;99.90;;;;;;4935106;29;19960;-68
2022/10/07 08:22:16;;;;;;;;;;;16.60;99.90;;;;;;4935415;29;19946;-72
2022/10/07 08:24:43;;;;;;;;;;;16.60;99.90;;;;;;4935073;29;19946;-71
2022/10/07 08:27:09;;;;;;;;;;;16.50;99.90;;;;;;4935037;29;19978;-69
2022/10/07 08:29:36;;;;;;;;;;;16.50;99.90;;;;;;4934679;29;20252;-71
2022/10/07 08:32:03;;;;;;;;;;;16.50;99.90;;;;;;4934587;29;20029;-69
2022/10/07 08:34:30;;;;;;;;;;;16.50;99.90;;;;;;4934762;29;20393;-69
2022/10/07 08:36:57;;;;;;;;;;;16.40;99.90;;;;;;4934823;29;19957;-68
2022/10/07 08:39:25;;;;;;;;;;;16.40;99.90;;;;;;4934200;29;19922;-68
2022/10/07 08:41:58;;;;;;;;;;;16.50;99.90;;;;;;4934865;29;20421;-68
2022/10/07 08:44:27;;;;;;;;;;;16.40;99.90;;;;;;4934624;29;19911;-68
2022/10/07 08:47:00;;;;;;;;;;;16.40;99.90;;;;;;4934750;29;20367;-68
2022/10/07 08:49:33;;;;;;;;;;;16.40;99.90;;;;;;4934245;29;19933;-68
2022/10/07 08:52:13;;;;;;;;;;;16.40;99.90;;;;;;4934583;29;19930;-68
2022/10/07 08:54:40;;;;;;;;;;;16.40;99.90;;;;;;4934604;29;19911;-69
2022/10/07 08:57:09;;;;;;;;;;;16.40;99.90;;;;;;4934236;29;19998;-67
2022/10/07 08:59:37;;;;;;;;;;;16.40;99.90;;;;;;4934033;29;19910;-70
2022/10/07 09:02:33;;;;;;;;;;;16.40;99.90;;;;;;4934315;29;19923;-68
2022/10/07 09:05:00;;;;;;;;;;;16.40;99.90;;;;;;4925831;29;19911;-69
2022/10/07 09:07:27;;;;;;;;;;;16.40;99.90;;;;;;4934218;29;19914;-69
2022/10/07 09:09:57;;;;;;;;;;;16.40;99.90;;;;;;4934392;29;19922;-68
2022/10/07 09:12:28;;;;;;;;;;;16.30;99.90;;;;;;4934257;29;19919;-69
2022/10/07 09:14:56;;;;;;;;;;;16.30;99.90;;;;;;4934372;29;19910;-69
2022/10/07 09:17:28;;;;;;;;;;;16.30;99.90;;;;;;4934236;29;20053;-69
2022/10/07 09:19:57;;;;;;;;;;;16.40;99.90;;;;;;4936131;29;19922;-69
2022/10/07 09:22:26;;;;;;;;;;;16.40;99.90;;;;;;4937991;29;20307;-69
2022/10/07 09:24:57;;;;;;;;;;;16.40;99.90;;;;;;4937539;29;19922;-69
2022/10/07 09:27:25;;;;;;;;;;;16.40;99.90;;;;;;4937777;29;19925;-69
2022/10/07 09:29:52;;;;;;;;;;;16.40;99.90;;;;;;4937431;29;20002;-70
2022/10/07 09:32:19;;;;;;;;;;;16.40;99.90;;;;;;4937851;29;19970;-68
2022/10/07 09:34:46;;;;;;;;;;;16.40;99.90;;;;;;4937837;29;19915;-68
2022/10/07 09:37:20;;;;;;;;;;;16.40;99.90;;;;;;4937501;29;20010;-68
2022/10/07 09:39:49;;;;;;;;;;;16.40;99.90;;;;;;4937272;29;19915;-68
2022/10/07 09:42:25;;;;;;;;;;;16.40;99.90;;;;;;4937485;29;19914;-69
2022/10/07 09:44:53;;;;;;;;;;;16.40;99.90;;;;;;4937321;29;19986;-68
2022/10/07 09:47:24;;;;;;;;;;;16.40;99.90;;;;;;4937011;29;19962;-69
2022/10/07 09:49:55;;;;;;;;;;;16.40;99.90;;;;;;4937364;29;19938;-69
2022/10/07 09:52:24;;;;;;;;;;;16.40;99.90;;;;;;4937572;29;19919;-69
2022/10/07 09:54:52;;;;;;;;;;;16.40;99.90;;;;;;4937480;29;19917;-69
2022/10/07 09:57:34;;;;;;;;;;;16.40;99.90;;;;;;4937075;29;19914;-68
2022/10/07 10:00:13;;;;;;;;;;;16.40;99.90;;;;;;4937427;29;19919;-71
2022/10/07 10:02:42;;;;;;;;;;;16.40;99.90;;;;;;4936937;29;19933;-68
2022/10/07 10:05:29;;;;;;;;;;;16.40;99.90;;;;;;4936757;29;20263;-72
2022/10/07 10:07:58;;;;;;;;;;;16.50;99.90;;;;;;4936574;29;20472;-72
2022/10/07 10:10:32;;;;;;;;;;;16.40;99.90;;;;;;4929774;29;19970;-72
2022/10/07 10:12:59;;;;;;;;;;;16.40;99.90;;;;;;4928775;29;19923;-70
2022/10/07 10:15:28;;;;;;;;;;;16.50;99.90;;;;;;4928978;29;20113;-73
2022/10/07 10:17:56;;;;;;;;;;;16.40;99.90;;;;;;4928774;29;19915;-73
2022/10/07 10:20:28;;;;;;;;;;;16.50;99.90;;;;;;4928926;29;19922;-74
2022/10/07 10:22:55;;;;;;;;;;;16.50;99.90;;;;;;4928234;29;19915;-72
2022/10/07 10:28:32;;;;;;;;;;;16.50;99.90;;;;;;4917713;29;20010;-74
2022/10/07 10:31:03;;;;;;;;;;;16.40;99.90;;;;;;4928053;29;19981;-71
2022/10/07 10:33:46;;;;;;;;;;;16.50;99.90;;;;;;4928720;29;20047;-71
2022/10/07 10:36:19;;;;;;;;;;;16.50;99.90;;;;;;4928400;29;19938;-73
2022/10/07 10:38:48;;;;;;;;;;;16.50;99.90;;;;;;4928067;29;20660;-72
2022/10/07 10:41:30;;;;;;;;;;;16.50;99.90;;;;;;4928853;29;20017;-71
2022/10/07 10:43:56;;;;;;;;;;;16.50;99.90;;;;;;4928452;29;20381;-74
2022/10/07 10:46:26;;;;;;;;;;;16.50;99.90;;;;;;4928153;29;19915;-72
2022/10/07 10:49:13;;;;;;;;;;;16.50;99.90;;;;;;4927486;29;19974;-73
2022/10/07 10:51:46;;;;;;;;;;;16.50;99.90;;;;;;4928079;29;19930;-70
2022/10/07 10:54:24;;;;;;;;;;;16.50;99.90;;;;;;4928248;29;19974;-72
2022/10/07 10:56:57;;;;;;;;;;;16.50;99.90;;;;;;4928019;29;19914;-73
2022/10/07 10:59:30;;;;;;;;;;;16.40;99.90;;;;;;4927398;29;19922;-73
2022/10/07 11:02:14;;;;;;;;;;;16.50;99.90;;;;;;4927533;29;19923;-72
2022/10/07 11:04:44;;;;;;;;;;;16.50;99.90;;;;;;4927981;29;19921;-70
2022/10/07 11:07:20;;;;;;;;;;;16.50;99.90;;;;;;4927658;29;19915;-71
2022/10/07 11:09:56;;;;;;;;;;;16.50;99.90;;;;;;4927675;29;19915;-73
2022/10/07 11:12:26;;;;;;;;;;;16.50;99.90;;;;;;4927676;29;19927;-69
2022/10/07 11:14:56;;;;;;;;;;;16.50;99.90;;;;;;4927423;29;20656;-73
2022/10/07 11:17:26;;;;;;;;;;;16.50;99.90;;;;;;4927301;29;19973;-73
2022/10/07 11:20:15;;;;;;;;;;;16.50;99.90;;;;;;4927690;29;20290;-70
2022/10/07 11:22:45;;;;;;;;;;;16.50;99.90;;;;;;4924272;29;20472;-74
2022/10/07 11:25:32;;;;;;;;;;;16.50;99.90;;;;;;4927496;29;20013;-74
2022/10/07 11:28:04;;;;;;;;;;;16.50;99.90;;;;;;4926497;29;19919;-73
2022/10/07 11:30:35;;;;;;;;;;;16.50;99.90;;;;;;4927498;29;19915;-72
2022/10/07 11:33:07;;;;;;;;;;;16.50;99.90;;;;;;4927458;29;19999;-74
2022/10/07 11:35:36;;;;;;;;;;;16.50;99.90;;;;;;4927271;29;20342;-72
2022/10/07 11:38:09;;;;;;;;;;;16.50;99.90;;;;;;4926942;29;19915;-73
2022/10/07 11:40:43;;;;;;;;;;;16.50;99.90;;;;;;4927291;29;19919;-73
2022/10/07 11:43:18;;;;;;;;;;;16.60;99.90;;;;;;4926095;29;19915;-72
2022/10/07 11:45:51;;;;;;;;;;;16.50;99.90;;;;;;4927007;29;19914;-74
2022/10/07 11:48:23;;;;;;;;;;;16.50;99.90;;;;;;4927046;29;20358;-74
2022/10/07 11:50:58;;;;;;;;;;;16.50;99.90;;;;;;4927293;29;19973;-73
2022/10/07 11:53:27;;;;;;;;;;;16.50;99.90;;;;;;4926978;29;20366;-74
2022/10/07 11:55:59;;;;;;;;;;;16.50;99.90;;;;;;4926544;29;19914;-73
2022/10/07 11:58:29;;;;;;;;;;;16.60;99.90;;;;;;4926415;29;20393;-74
2022/10/07 12:01:14;;;;;;;;;;;16.50;99.90;;;;;;4927025;29;19934;-74
2022/10/07 12:03:40;;;;;;;;;;;16.50;99.90;;;;;;4927172;29;19974;-74
2022/10/07 12:06:11;;;;;;;;;;;16.50;99.90;;;;;;4926659;29;19922;-72
2022/10/07 12:08:40;;;;;;;;;;;16.50;99.90;;;;;;4926242;29;20345;-70
2022/10/07 12:11:16;;;;;;;;;;;16.50;99.90;;;;;;4926174;29;19919;-74
2022/10/07 12:13:44;;;;;;;;;;;16.50;99.90;;;;;;4926989;29;19922;-73
2022/10/07 12:16:33;;;;;;;;;;;16.60;99.90;;;;;;4926899;29;19915;-73
2022/10/07 12:19:06;;;;;;;;;;;16.60;99.90;;;;;;4926692;29;19914;-73
2022/10/07 12:21:51;;;;;;;;;;;16.50;99.90;;;;;;4926417;29;19919;-71
2022/10/07 12:24:17;;;;;;;;;;;16.60;99.90;;;;;;4926732;29;20442;-74
2022/10/07 12:26:45;;;;;;;;;;;16.60;99.90;;;;;;4926564;29;19993;-73
2022/10/07 12:29:23;;;;;;;;;;;16.60;99.90;;;;;;4926041;29;19962;-71
2022/10/07 12:31:49;;;;;;;;;;;16.60;99.90;;;;;;4926847;29;19974;-73
2022/10/07 12:34:27;;;;;;;;;;;16.60;99.90;;;;;;4926305;29;19922;-73
2022/10/07 12:36:53;;;;;;;;;;;16.60;99.90;;;;;;4926579;29;20014;-73
2022/10/07 12:39:33;;;;;;;;;;;16.60;99.90;;;;;;4925988;29;19985;-73
2022/10/07 12:42:00;;;;;;;;;;;16.60;99.90;;;;;;4926441;29;19919;-73
2022/10/07 12:44:37;;;;;;;;;;;16.60;99.90;;;;;;4926204;29;19922;-73
2022/10/07 12:47:10;;;;;;;;;;;16.60;99.90;;;;;;4926122;29;19915;-74
2022/10/07 12:49:39;;;;;;;;;;;16.60;99.90;;;;;;4926248;29;19922;-70
2022/10/07 12:52:11;;;;;;;;;;;16.70;99.90;;;;;;4925811;29;19974;-73
2022/10/07 12:54:48;;;;;;;;;;;16.70;99.90;;;;;;4928099;29;19915;-73
2022/10/07 12:57:19;;;;;;;;;;;16.70;99.90;;;;;;4929294;29;19914;-74
2022/10/07 13:00:06;;;;;;;;;;;16.70;99.90;;;;;;4929719;29;19914;-70
2022/10/07 13:02:52;;;;;;;;;;;16.70;99.90;;;;;;4929892;29;20406;-74
2022/10/07 13:05:42;;;;;;;;;;;16.70;99.90;;;;;;4929870;29;19914;-72
2022/10/07 13:08:12;;;;;;;;;;;16.70;99.90;;;;;;4933018;29;19915;-70
2022/10/07 13:10:46;;;;;;;;;;;16.70;99.90;;;;;;4938824;29;19918;-71
2022/10/07 13:13:20;;;;;;;;;;;16.70;99.90;;;;;;4939148;29;19945;-72
2022/10/07 13:16:08;;;;;;;;;;;16.70;99.90;;;;;;4939193;29;19915;-72
2022/10/07 13:18:52;;;;;;;;;;;16.80;99.90;;;;;;4939062;29;19914;-73
2022/10/07 13:21:37;;;;;;;;;;;16.80;99.90;;;;;;4938346;29;20282;-71
2022/10/07 13:24:05;;;;;;;;;;;16.80;99.90;;;;;;4938264;29;19911;-68
2022/10/07 13:26:32;;;;;;;;;;;16.80;99.90;;;;;;4937907;29;20292;-70
2022/10/07 13:28:59;;;;;;;;;;;16.80;99.90;;;;;;4937435;29;20042;-69
2022/10/07 13:31:27;;;;;;;;;;;16.70;99.90;;;;;;4937492;29;19978;-69
2022/10/07 13:33:55;;;;;;;;;;;16.80;99.90;;;;;;4937700;29;19963;-69
2022/10/07 13:36:25;;;;;;;;;;;16.80;99.90;;;;;;4937803;29;19937;-69
2022/10/07 13:38:54;;;;;;;;;;;16.80;99.90;;;;;;4937410;29;19911;-68
2022/10/07 13:41:22;;;;;;;;;;;16.80;99.90;;;;;;4937375;29;19962;-69
2022/10/07 13:43:53;;;;;;;;;;;16.80;99.90;;;;;;4937720;29;19914;-72
2022/10/07 13:46:24;;;;;;;;;;;16.80;99.90;;;;;;4937313;29;19993;-68
2022/10/07 13:48:53;;;;;;;;;;;16.80;99.90;;;;;;4937350;29;20327;-69
2022/10/07 13:51:26;;;;;;;;;;;16.80;99.90;;;;;;4937032;29;19915;-69
2022/10/07 13:53:54;;;;;;;;;;;16.80;99.90;;;;;;4937428;29;19942;-70
2022/10/07 13:56:34;;;;;;;;;;;16.80;99.90;;;;;;4937166;29;19973;-69
2022/10/07 13:59:02;;;;;;;;;;;16.80;99.90;;;;;;4936957;29;20370;-69
2022/10/07 14:01:29;;;;;;;;;;;16.80;99.90;;;;;;4937060;29;19925;-69
2022/10/07 14:04:00;;;;;;;;;;;16.80;99.90;;;;;;4937224;29;20338;-68
2022/10/07 14:06:39;;;;;;;;;;;16.80;99.90;;;;;;4936224;29;19922;-69
2022/10/07 14:09:16;;;;;;;;;;;16.80;99.90;;;;;;4936391;29;19969;-68
2022/10/07 14:11:42;;;;;;;;;;;16.80;99.90;;;;;;4936706;29;19919;-69
2022/10/07 14:14:19;;;;;;;;;;;16.80;99.90;;;;;;4937094;29;19918;-69
2022/10/07 14:16:48;;;;;;;;;;;16.90;99.90;;;;;;4936967;29;19962;-68
2022/10/07 14:19:21;;;;;;;;;;;16.90;99.90;;;;;;4936399;29;20010;-68
2022/10/07 14:21:47;;;;;;;;;;;16.80;99.90;;;;;;4936838;29;19950;-69
2022/10/07 14:24:17;;;;;;;;;;;16.90;99.90;;;;;;4936842;29;19966;-69
2022/10/07 14:26:44;;;;;;;;;;;16.80;99.90;;;;;;4936743;29;20367;-69
2022/10/07 14:29:29;;;;;;;;;;;16.80;99.90;;;;;;4936182;29;20429;-69
2022/10/07 14:37:30;;;;;;;;;;;16.80;99.90;;;;;;4936600;29;19922;-69
2022/10/07 14:39:57;;;;;;;;;;;16.80;99.90;;;;;;4936664;29;19911;-69
2022/10/07 14:42:24;;;;;;;;;;;16.90;99.90;;;;;;4936371;29;20030;-69
2022/10/07 14:44:51;;;;;;;;;;;16.80;99.90;;;;;;4936443;29;20429;-69
2022/10/07 14:47:23;;;;;;;;;;;16.80;99.90;;;;;;4935729;29;20349;-69
2022/10/07 14:49:51;;;;;;;;;;;16.90;99.90;;;;;;4936272;29;19919;-68
2022/10/07 14:52:36;;;;;;;;;;;16.90;99.90;;;;;;4935938;29;19933;-68